コペンハーゲン の空港の天気 - METARとTAF

コペンハーゲン国際空港 ( EKCH / CPH ) - デンマーク コペンハーゲン
飛行場実況気象(Metar)
観測時間08/17 13:20 CEST (08/17 11:20 UTC)
風向・風速南 6m/s
視程10km以上
天気現象
全天を覆う雲 雲底高度 880m
気温18℃
湿度83%
気圧1007hPa
METAREKCH 171120Z AUTO 18011KT 9999 OVC029/// 18/15 Q1007 BECMG BKN012
過去の天気等 Google飛行場航空写真 Wunderground天気予報

過去48時間のMETAR

飛行場予報(TAF)
発表時間: 8/17 13:08 CEST (8/17 11:08 UTC)
予報対象時間: 17日14時 CEST ~ 18日14時 CEST
風向・風速南 8m/s
視程10km以上
全天の8割程度の雲 雲底高度 610m
17日14時 CEST ~ 17日17時 CEST に一時的に
視程4000m
天気現象弱い雨霧雨 もや
全天の8割程度の雲 雲底高度 240m
17日17時 CEST ~ 18日2時 CEST に一時的に
天気現象弱い雨霧雨
全天の8割程度の雲 雲底高度 370m
18日2時 CEST ~ 18日10時 CEST に一時的に
天気現象弱いしゅう雨
全天の8割程度の雲 雲底高度 240m
全天の4割程度の塔状積雲 雲底高度 550m
TAF EKCH 171108Z 1712/1812 19015KT 9999 BKN020
TEMPO 1712/1715 4000 -RADZ BR BKN008
TEMPO 1715/1724 -RADZ BKN012
TEMPO 1800/1808 -SHRA BKN008 SCT018TCU